Time;durP1;ratioP1;P1;durP2;ratioP2;P2;SDS_P1;SDS_P2;PMS_P1;PMS_P2;Temp;Humidity;BMP_temperature;BMP_pressure;BME280_temperature;BME280_humidity;BME280_pressure;Samples;Min_cycle;Max_cycle;Signal;HPM_P1;HPM_P2
2022/08/23 00:01:19;;;;;;;1.50;0.25;;;;;;;16.35;100.00;99459.59;7386267;19;20038;-79
2022/08/23 00:03:46;;;;;;;1.25;0.13;;;;;;;16.36;100.00;99453.44;7387465;19;20022;-79
2022/08/23 00:06:12;;;;;;;3.83;1.10;;;;;;;16.40;100.00;99465.16;7386408;19;20015;-79
2022/08/23 00:08:39;;;;;;;2.28;0.28;;;;;;;16.47;100.00;99464.56;7386139;19;20023;-80
2022/08/23 00:11:22;;;;;;;1.95;0.80;;;;;;;16.52;100.00;99466.56;7389585;19;20423;-80
2022/08/23 00:13:48;;;;;;;0.50;0.10;;;;;;;16.58;100.00;99461.69;7384461;19;20019;-79
2022/08/23 00:16:14;;;;;;;8.77;0.85;;;;;;;16.61;100.00;99473.94;7384893;19;20019;-79
2022/08/23 00:18:41;;;;;;;0.98;0.85;;;;;;;16.64;100.00;99461.63;7382583;19;20018;-80
2022/08/23 00:21:07;;;;;;;19.55;1.05;;;;;;;16.64;100.00;99461.63;7383665;19;20433;-79
2022/08/23 00:23:33;;;;;;;1.05;0.20;;;;;;;16.59;100.00;99462.44;7386652;19;20015;-80
2022/08/23 00:26:02;;;;;;;1.38;0.50;;;;;;;16.62;100.00;99458.56;7389533;19;20648;-80
2022/08/23 00:28:30;;;;;;;3.35;0.40;;;;;;;16.59;100.00;99466.00;7383898;19;20018;-80
2022/08/23 00:30:57;;;;;;;0.85;0.30;;;;;;;16.58;100.00;99461.69;7383563;19;20710;-80
2022/08/23 00:33:24;;;;;;;0.70;0.30;;;;;;;16.58;100.00;99469.34;7381784;19;20034;-80
2022/08/23 00:35:51;;;;;;;6.40;0.65;;;;;;;16.59;100.00;99460.38;7386948;19;20022;-80
2022/08/23 00:38:17;;;;;;;11.52;0.77;;;;;;;16.59;100.00;99466.00;7383096;19;20014;-80
2022/08/23 00:40:47;;;;;;;0.38;0.30;;;;;;;16.61;100.00;99463.44;7383262;19;20503;-79
2022/08/23 00:49:07;;;;;;;1.95;0.38;;;;;;;16.65;100.00;99463.91;7389902;19;20361;-80
2022/08/23 00:51:50;;;;;;;2.60;1.13;;;;;;;16.63;100.00;99460.84;7389925;19;20019;-80
2022/08/23 00:54:18;;;;;;;2.70;0.70;;;;;;;16.64;100.00;99465.19;7387777;19;20018;-80
2022/08/23 00:56:45;;;;;;;2.33;0.52;;;;;;;16.63;100.00;99469.28;7390807;19;20013;-80
2022/08/23 00:59:12;;;;;;;2.78;0.50;;;;;;;16.63;100.00;99460.84;7388854;19;20040;-81
2022/08/23 01:01:38;;;;;;;3.45;0.85;;;;;;;16.62;100.00;99470.59;7391060;19;20023;-80
2022/08/23 01:04:04;;;;;;;1.05;0.20;;;;;;;16.62;100.00;99464.97;7392532;19;20015;-79
2022/08/23 01:07:07;;;;;;;1.58;0.50;;;;;;;16.64;100.00;99461.63;7391889;19;20230;-80
2022/08/23 01:09:36;;;;;;;0.73;0.50;;;;;;;16.63;100.00;99466.47;7391355;19;20038;-80
2022/08/23 01:12:08;;;;;;;3.10;1.17;;;;;;;16.66;100.00;99473.09;7388181;19;20018;-81
2022/08/23 01:14:56;;;;;;;3.05;0.68;;;;;;;16.67;100.00;99475.38;7388532;19;20012;-78
2022/08/23 01:17:40;;;;;;;8.15;1.00;;;;;;;16.68;100.00;99474.09;7392739;19;20031;-79
2022/08/23 01:20:11;;;;;;;2.45;0.93;;;;;;;16.71;100.00;99477.91;7387228;19;20046;-78
2022/08/23 01:23:04;;;;;;;2.92;0.80;;;;;;;16.75;100.00;99483.22;7388649;19;20369;-81
2022/08/23 01:25:32;;;;;;;3.38;0.85;;;;;;;16.77;100.00;99483.47;7389587;19;20038;-78
2022/08/23 01:27:59;;;;;;;2.47;0.40;;;;;;;16.79;100.00;99478.06;7390145;19;20035;-80
2022/08/23 01:30:31;;;;;;;1.85;0.40;;;;;;;16.81;100.00;99478.31;7389801;19;20011;-79
2022/08/23 01:33:02;;;;;;;1.45;0.25;;;;;;;16.82;100.00;99477.03;7389487;19;20006;-89
2022/08/23 01:35:46;;;;;;;5.47;0.73;;;;;;;16.83;100.00;99484.19;7390729;19;20021;-79
2022/08/23 01:38:13;;;;;;;2.80;0.43;;;;;;;16.84;100.00;99478.03;7388002;19;20097;-79
2022/08/23 01:40:43;;;;;;;1.42;0.35;;;;;;;16.88;100.00;99486.16;7393368;19;20052;-79
2022/08/23 01:43:12;;;;;;;2.50;0.45;;;;;;;16.89;100.00;99487.69;7389987;19;20067;-79
2022/08/23 01:45:39;;;;;;;0.30;0.15;;;;;;;16.90;100.00;99483.59;7389912;19;20452;-79
2022/08/23 01:48:05;;;;;;;0.28;0.10;;;;;;;16.90;100.00;99483.59;7386521;19;20113;-79
2022/08/23 01:50:32;;;;;;;3.47;0.80;;;;;;;16.91;100.00;99482.31;7388729;19;20029;-79
2022/08/23 01:52:58;;;;;;;1.80;0.50;;;;;;;16.92;100.00;99481.00;7388922;19;20103;-79
2022/08/23 01:55:26;;;;;;;2.03;0.85;;;;;;;16.94;100.00;99467.94;7387770;19;20018;-79
2022/08/23 01:57:55;;;;;;;0.75;0.20;;;;;;;16.94;100.00;99478.41;7387423;19;20015;-78
2022/08/23 02:00:31;;;;;;;3.08;0.95;;;;;;;16.93;100.00;99476.91;7388989;19;20027;-80
2022/08/23 02:02:59;;;;;;;9.43;0.50;;;;;;;16.92;100.00;99472.56;7389448;19;20010;-81
2022/08/23 02:05:26;;;;;;;1.63;0.38;;;;;;;16.93;100.00;99474.88;7391179;19;20010;-81
2022/08/23 02:07:52;;;;;;;1.92;0.73;;;;;;;16.93;100.00;99483.31;7391671;19;20039;-81
2022/08/23 02:10:19;;;;;;;2.85;0.60;;;;;;;16.93;100.00;99476.91;7395583;19;20011;-85
2022/08/23 02:12:46;;;;;;;4.68;0.52;;;;;;;16.93;100.00;99477.69;7388224;19;20014;-81
2022/08/23 02:15:15;;;;;;;1.88;0.52;;;;;;;16.91;100.00;99485.13;7388876;19;20010;-81
2022/08/23 02:17:43;;;;;;;5.80;1.10;;;;;;;16.92;100.00;99478.19;7389731;19;20488;-84
2022/08/23 02:20:10;;;;;;;4.03;0.88;;;;;;;16.95;100.00;99479.97;7389451;19;20029;-82
2022/08/23 02:22:38;;;;;;;8.50;1.02;;;;;;;16.95;100.00;99491.97;7386970;19;20018;-81
2022/08/23 02:25:06;;;;;;;2.05;0.43;;;;;;;16.93;100.00;99488.16;7392729;19;20018;-81
2022/08/23 02:27:32;;;;;;;4.13;1.02;;;;;;;16.93;100.00;99483.31;7391326;19;20461;-81
2022/08/23 02:29:58;;;;;;;17.33;2.10;;;;;;;16.94;100.00;99486.84;7387339;19;20023;-80
2022/08/23 02:32:25;;;;;;;2.42;0.32;;;;;;;16.93;100.00;99485.34;7387459;19;20041;-80
2022/08/23 02:34:52;;;;;;;8.02;0.45;;;;;;;16.96;100.00;99478.66;7384765;19;20019;-80
2022/08/23 02:37:19;;;;;;;2.20;0.63;;;;;;;16.97;100.00;99483.00;7384609;19;20031;-80
2022/08/23 02:39:45;;;;;;;2.25;0.77;;;;;;;16.96;100.00;99470.22;7383953;19;20019;-80
2022/08/23 02:42:13;;;;;;;7.65;0.50;;;;;;;16.97;100.00;99466.88;7382776;19;20014;-80
2022/08/23 02:44:41;;;;;;;0.68;0.30;;;;;;;16.96;100.00;99470.22;7386260;19;20021;-79
2022/08/23 02:47:10;;;;;;;0.73;0.30;;;;;;;16.96;100.00;99470.97;7386455;19;20021;-79
2022/08/23 02:49:38;;;;;;;8.13;0.73;;;;;;;16.96;100.00;99470.97;7386380;19;20019;-80
2022/08/23 02:52:06;;;;;;;1.45;0.30;;;;;;;16.98;100.00;99467.66;7385222;19;20070;-80
2022/08/23 02:54:34;;;;;;;2.63;0.52;;;;;;;16.95;100.00;99461.03;7384980;19;20365;-79
2022/08/23 02:57:00;;;;;;;0.40;0.28;;;;;;;16.96;100.00;99458.97;7384441;19;20018;-80
2022/08/23 02:59:26;;;;;;;3.60;0.70;;;;;;;16.92;100.00;99452.88;7388091;19;20021;-80
2022/08/23 03:01:52;;;;;;;5.53;0.88;;;;;;;16.91;100.00;99459.81;7388183;19;20010;-80
2022/08/23 03:04:25;;;;;;;4.80;0.77;;;;;;;16.86;100.00;99450.13;7387638;19;20038;-79
2022/08/23 03:06:51;;;;;;;2.50;0.80;;;;;;;16.83;100.00;99450.44;7385038;19;20090;-79
2022/08/23 03:09:20;;;;;;;3.53;0.57;;;;;;;16.79;100.00;99458.38;7384602;19;20011;-79
2022/08/23 03:11:48;;;;;;;0.47;0.43;;;;;;;16.71;100.00;99446.97;7385496;19;20086;-79
2022/08/23 03:14:15;;;;;;;2.83;0.52;;;;;;;16.71;100.00;99457.47;7385011;19;20014;-79
2022/08/23 03:16:42;;;;;;;2.25;0.20;;;;;;;16.64;100.00;99462.38;7384688;19;20099;-80
2022/08/23 03:19:08;;;;;;;2.63;0.95;;;;;;;16.63;100.00;99460.84;7385113;19;20010;-79
2022/08/23 03:21:35;;;;;;;2.47;0.63;;;;;;;16.63;100.00;99466.47;7386998;19;20027;-80
2022/08/23 03:24:01;;;;;;;1.05;0.52;;;;;;;16.64;100.00;99473.63;7389873;19;20022;-79
2022/08/23 03:26:28;;;;;;;2.38;0.88;;;;;;;16.64;100.00;99475.69;7386200;19;20021;-80
2022/08/23 03:28:55;;;;;;;2.35;0.73;;;;;;;16.63;100.00;99469.28;7385507;19;20021;-80
2022/08/23 03:31:22;;;;;;;7.90;1.17;;;;;;;16.63;100.00;99466.47;7385863;19;20022;-79
2022/08/23 03:34:03;;;;;;;2.58;0.50;;;;;;;16.63;100.00;99476.97;7384497;19;20030;-79
2022/08/23 03:36:30;;;;;;;1.05;0.28;;;;;;;16.62;100.00;99470.59;7384528;19;20545;-79
2022/08/23 03:38:57;;;;;;;1.25;0.28;;;;;;;16.62;100.00;99479.03;7386366;19;20020;-79
2022/08/23 03:41:24;;;;;;;14.57;0.90;;;;;;;16.61;100.00;99471.88;7388288;19;20031;-79
2022/08/23 03:43:51;;;;;;;2.33;0.45;;;;;;;16.63;100.00;99471.34;7389924;19;20013;-79
2022/08/23 03:46:24;;;;;;;1.38;0.30;;;;;;;16.61;100.00;99474.69;7384911;19;20014;-79
2022/08/23 03:48:59;;;;;;;0.43;0.10;;;;;;;16.59;100.00;99471.63;7384683;19;20038;-79
2022/08/23 03:51:28;;;;;;;1.95;0.38;;;;;;;16.60;100.00;99472.41;7385491;19;20018;-80
2022/08/23 03:53:57;;;;;;;1.25;0.38;;;;;;;16.57;100.00;99476.25;7384665;19;20477;-79
2022/08/23 03:56:31;;;;;;;2.33;0.98;;;;;;;16.53;100.00;99470.94;7383733;19;20014;-79
2022/08/23 03:59:02;;;;;;;2.95;0.93;;;;;;;16.53;100.00;99475.78;7382855;19;20484;-81
2022/08/23 04:01:28;;;;;;;2.97;0.60;;;;;;;16.56;100.00;99478.31;7384829;19;20018;-79
2022/08/23 04:03:58;;;;;;;0.60;0.25;;;;;;;16.53;100.00;99481.41;7384427;19;20090;-82
2022/08/23 04:06:28;;;;;;;3.50;0.35;;;;;;;16.47;100.00;99486.28;7383161;19;20024;-82
2022/08/23 04:08:55;;;;;;;6.65;1.13;;;;;;;16.49;100.00;99478.88;7385596;19;20051;-82
2022/08/23 04:11:22;;;;;;;1.65;0.82;;;;;;;16.44;100.00;99471.22;7386981;19;20114;-80
2022/08/23 04:13:56;;;;;;;0.98;0.15;;;;;;;16.42;100.00;99456.94;7387614;19;20018;-80
2022/08/23 04:16:22;;;;;;;5.25;0.30;;;;;;;16.35;100.00;99457.50;7385633;19;20050;-80
2022/08/23 04:18:48;;;;;;;2.65;0.38;;;;;;;16.36;100.00;99458.28;7384787;19;20030;-79
2022/08/23 04:21:21;;;;;;;1.35;0.75;;;;;;;16.39;100.00;99463.63;7389266;19;20015;-79
2022/08/23 04:23:47;;;;;;;0.52;0.17;;;;;;;16.41;100.00;99460.28;7395000;19;20022;-80
2022/08/23 04:26:13;;;;;;;4.38;0.63;;;;;;;16.40;100.00;99464.38;7391825;19;20031;-79
2022/08/23 04:28:42;;;;;;;2.95;0.68;;;;;;;16.39;100.00;99466.44;7391835;19;20025;-80
2022/08/23 04:31:08;;;;;;;3.42;0.52;;;;;;;16.39;100.00;99469.25;7392389;19;20019;-79
2022/08/23 04:33:36;;;;;;;2.65;0.55;;;;;;;16.43;100.00;99480.97;7392278;19;20513;-78
2022/08/23 04:36:02;;;;;;;1.02;0.40;;;;;;;16.44;100.00;99478.91;7388934;19;20127;-79
2022/08/23 04:38:29;;;;;;;1.65;0.32;;;;;;;16.43;100.00;99486.59;7389137;19;20019;-79
2022/08/23 04:43:45;;;;;;;1.20;0.35;;;;;;;16.50;100.00;99480.41;7394660;19;20019;-79
2022/08/23 04:46:15;;;;;;;0.40;0.22;;;;;;;16.47;100.00;99475.81;7393534;19;20018;-79
2022/08/23 04:48:43;;;;;;;0.60;0.38;;;;;;;16.50;100.00;99483.22;7391743;19;20215;-79
2022/08/23 04:51:10;;;;;;;3.00;0.70;;;;;;;16.51;100.00;99487.56;7390185;19;20018;-80
2022/08/23 04:53:38;;;;;;;0.63;0.20;;;;;;;16.55;100.00;99481.63;7391965;19;20901;-80
2022/08/23 04:56:23;;;;;;;1.48;0.80;;;;;;;16.56;100.00;99481.13;7390515;19;20014;-79
2022/08/23 04:58:50;;;;;;;1.48;0.30;;;;;;;16.50;100.00;99469.16;7388077;19;20014;-80
2022/08/23 05:01:16;;;;;;;2.58;0.50;;;;;;;16.57;100.00;99468.59;7389907;19;20479;-79
2022/08/23 05:03:44;;;;;;;0.75;0.30;;;;;;;16.59;100.00;99471.63;7395289;19;20015;-80
2022/08/23 05:06:11;;;;;;;4.38;0.73;;;;;;;16.56;100.00;99486.75;7390586;19;20334;-80
2022/08/23 05:08:39;;;;;;;2.92;0.40;;;;;;;16.59;100.00;99477.25;7390987;19;20022;-80
2022/08/23 05:11:10;;;;;;;4.75;0.70;;;;;;;16.64;100.00;99482.06;7393653;19;20377;-81
2022/08/23 05:13:37;;;;;;;0.50;0.43;;;;;;;16.64;100.00;99479.25;7387819;19;20037;-82
2022/08/23 05:16:05;;;;;;;3.83;0.80;;;;;;;16.70;100.00;99479.19;7388474;19;20360;-83
2022/08/23 05:18:35;;;;;;;4.28;0.30;;;;;;;16.75;100.00;99484.00;7388948;19;20353;-82
2022/08/23 05:21:01;;;;;;;2.50;0.40;;;;;;;16.77;100.00;99475.03;7388825;19;20034;-82
2022/08/23 05:23:28;;;;;;;1.00;0.40;;;;;;;16.80;100.00;99494.44;7393364;19;20021;-83
2022/08/23 05:26:01;;;;;;;2.53;0.43;;;;;;;16.85;100.00;99498.50;7390528;19;20021;-82
2022/08/23 05:28:40;;;;;;;3.95;0.47;;;;;;;16.89;100.00;99498.94;7390728;19;20018;-82
2022/08/23 05:31:16;;;;;;;2.25;0.40;;;;;;;16.90;100.00;99494.84;7385891;19;20015;-82
2022/08/23 05:33:47;;;;;;;0.57;0.38;;;;;;;16.92;100.00;99497.88;7389456;19;20041;-82
2022/08/23 05:36:20;;;;;;;1.25;0.47;;;;;;;16.97;100.00;99505.50;7387689;19;20018;-82
2022/08/23 05:38:47;;;;;;;0.73;0.22;;;;;;;17.00;100.00;99505.19;7386975;19;20658;-82
2022/08/23 05:41:13;;;;;;;3.85;0.45;;;;;;;17.04;100.00;99516.94;7391270;19;20037;-83
2022/08/23 05:43:40;;;;;;;3.88;1.20;;;;;;;17.04;100.00;99516.94;7393506;19;20029;-82
2022/08/23 05:46:14;;;;;;;1.80;0.50;;;;;;;17.11;100.00;99527.59;7391223;19;20420;-83
2022/08/23 05:48:47;;;;;;;2.60;0.25;;;;;;;17.16;100.00;99518.34;7391551;19;20015;-83
2022/08/23 05:51:32;;;;;;;3.60;0.70;;;;;;;17.22;100.00;99521.06;7390073;19;20022;-82
2022/08/23 05:54:02;;;;;;;1.65;0.30;;;;;;;17.27;100.00;99511.81;7389830;19;20057;-83
2022/08/23 05:56:34;;;;;;;4.45;0.80;;;;;;;17.37;100.00;99530.63;7387670;19;20035;-82
2022/08/23 05:59:05;;;;;;;2.97;0.93;;;;;;;17.42;100.00;99534.66;7387561;19;20042;-83
2022/08/23 06:01:33;;;;;;;1.98;0.80;;;;;;;17.50;100.00;99527.16;7388968;19;20019;-82
2022/08/23 06:04:11;;;;;;;2.40;0.47;;;;;;;17.48;100.00;99532.53;7393411;19;20011;-82
2022/08/23 06:06:40;;;;;;;2.63;0.63;;;;;;;17.57;100.00;99531.41;7389226;19;20029;-83
2022/08/23 06:09:11;;;;;;;3.13;0.43;;;;;;;17.60;100.00;99533.19;7389023;19;20023;-82
2022/08/23 06:11:37;;;;;;;1.30;0.40;;;;;;;17.67;100.00;99527.69;7390403;19;20018;-82
2022/08/23 06:14:07;;;;;;;0.75;0.20;;;;;;;17.73;100.00;99525.59;7386788;19;20372;-82
2022/08/23 06:16:38;;;;;;;0.57;0.10;;;;;;;17.77;100.00;99526.03;7387607;19;20025;-82
2022/08/23 06:19:05;;;;;;;;;;;;;;;17.81;100.00;99520.84;7386186;19;20373;-82
2022/08/23 06:21:46;;;;;;;3.30;0.75;;;;;;;17.88;100.00;99525.88;7386485;19;19919;-82
2022/08/23 06:24:14;;;;;;;2.28;0.90;;;;;;;17.96;100.00;99529.59;7388073;19;20035;-82
2022/08/23 06:26:59;;;;;;;1.67;0.22;;;;;;;18.00;100.00;99532.88;7388917;19;20026;-82
2022/08/23 06:29:26;;;;;;;0.22;0.10;;;;;;;18.05;100.00;99525.63;7389028;19;20031;-81
2022/08/23 06:32:12;;;;;;;0.38;0.10;;;;;;;18.05;100.00;99529.22;7386674;19;20018;-83
2022/08/23 06:34:46;;;;;;;3.08;0.40;;;;;;;18.08;100.00;99525.31;7387038;19;20018;-82
2022/08/23 06:37:20;;;;;;;5.20;0.50;;;;;;;18.09;100.00;99518.41;7385134;19;20014;-82
2022/08/23 06:40:08;;;;;;;2.45;0.17;;;;;;;18.12;100.00;99525.78;7388452;19;20022;-83
2022/08/23 06:42:43;;;;;;;0.40;0.40;;;;;;;18.17;100.00;99524.94;7384570;19;20074;-82
2022/08/23 06:45:10;;;;;;;4.18;0.77;;;;;;;18.11;100.00;99526.31;7391419;19;20026;-83
2022/08/23 06:47:39;;;;;;;1.63;0.30;;;;;;;18.14;100.00;99526.00;7388088;19;20410;-82
2022/08/23 06:50:06;;;;;;;1.38;0.15;;;;;;;18.13;100.00;99527.31;7388469;19;20017;-82
2022/08/23 06:53:10;;;;;;;1.00;0.20;;;;;;;18.20;100.00;99534.38;7387492;19;20469;-83
2022/08/23 06:55:55;;;;;;;0.28;0.13;;;;;;;18.16;100.00;99534.69;7393699;19;20461;-82
2022/08/23 06:58:26;;;;;;;1.50;0.32;;;;;;;18.23;100.00;99544.59;7392913;19;20014;-83
2022/08/23 07:01:20;;;;;;;0.32;0.32;;;;;;;18.28;100.00;99531.72;7388969;19;20014;-82
2022/08/23 07:04:15;;;;;;;2.20;0.82;;;;;;;18.32;100.00;99537.78;7386993;19;20038;-82
2022/08/23 07:07:07;;;;;;;0.52;0.20;;;;;;;18.41;100.00;99537.41;7385849;19;20015;-82
2022/08/23 07:09:34;;;;;;;0.55;0.10;;;;;;;18.47;100.00;99535.25;7389023;19;20019;-83
2022/08/23 07:12:02;;;;;;;2.35;0.38;;;;;;;18.60;100.00;99543.75;7389268;19;20015;-82
2022/08/23 07:14:30;;;;;;;0.38;0.10;;;;;;;18.73;100.00;99547.34;7385281;19;20025;-82
2022/08/23 07:17:00;;;;;;;1.38;0.22;;;;;;;18.91;100.00;99542.94;7385376;19;20038;-83
2022/08/23 07:19:29;;;;;;;0.68;0.40;;;;;;;19.04;100.00;99542.97;7385716;19;20022;-83
2022/08/23 07:21:58;;;;;;;0.98;0.10;;;;;;;19.07;100.00;99547.53;7385809;19;20014;-83
2022/08/23 07:24:25;;;;;;;0.20;0.00;;;;;;;19.06;100.00;99551.63;7388554;19;20042;-83
2022/08/23 07:26:53;;;;;;;0.40;0.32;;;;;;;19.04;100.00;99554.25;7386862;19;20032;-82
2022/08/23 07:29:21;;;;;;;10.07;0.32;;;;;;;18.97;100.00;99552.09;7384953;19;20402;-83
2022/08/23 07:31:51;;;;;;;0.63;0.10;;;;;;;18.97;100.00;99560.56;7386213;19;20026;-83
2022/08/23 07:34:18;;;;;;;0.30;0.10;;;;;;;18.99;100.00;99569.25;7386454;19;20030;-82
2022/08/23 07:36:45;;;;;;;1.38;0.03;;;;;;;19.00;100.00;99569.97;7385048;19;20086;-82
2022/08/23 07:39:13;;;;;;;0.45;0.20;;;;;;;19.03;100.00;99569.69;7389272;19;20018;-81
2022/08/23 07:41:40;;;;;;;0.25;0.10;;;;;;;19.02;100.00;99565.31;7388392;19;20026;-82
2022/08/23 07:44:08;;;;;;;0.38;0.10;;;;;;;19.02;100.00;99568.16;7388383;19;20073;-81
2022/08/23 07:46:39;;;;;;;0.03;0.03;;;;;;;19.01;100.00;99566.63;7386781;19;20033;-82
2022/08/23 07:49:06;;;;;;;1.00;0.35;;;;;;;19.06;100.00;99579.88;7385666;19;20030;-82
2022/08/23 07:51:40;;;;;;;0.43;0.10;;;;;;;19.13;100.00;99573.59;7385417;19;20093;-81
2022/08/23 07:54:09;;;;;;;1.83;0.28;;;;;;;19.12;100.00;99574.91;7383320;19;20015;-82
2022/08/23 07:56:43;;;;;;;0.15;0.00;;;;;;;19.06;100.00;99579.88;7384536;19;20453;-81
2022/08/23 07:59:44;;;;;;;0.15;0.05;;;;;;;18.93;100.00;99577.03;7381912;19;20484;-83
2022/08/23 08:02:33;;;;;;;1.27;0.28;;;;;;;18.76;100.00;99570.91;7385285;19;20406;-82
2022/08/23 08:05:01;;;;;;;1.58;0.10;;;;;;;18.66;100.00;99578.28;7389309;19;20010;-82
2022/08/23 08:07:28;;;;;;;1.48;0.28;;;;;;;18.58;100.00;99578.13;7387425;19;20014;-82
2022/08/23 08:09:58;;;;;;;0.10;0.00;;;;;;;18.53;100.00;99583.88;7387169;19;20019;-79
2022/08/23 08:12:25;;;;;;;1.45;0.30;;;;;;;18.49;100.00;99583.44;7382362;19;20015;-82
2022/08/23 08:14:54;;;;;;;1.58;0.10;;;;;;;18.52;100.00;99587.97;7385177;19;20034;-79
2022/08/23 08:17:25;;;;;;;1.25;0.43;;;;;;;18.56;100.00;99589.19;7382794;19;20015;-79
2022/08/23 08:20:33;;;;;;;0.20;0.10;;;;;;;18.54;100.00;99585.38;7379662;19;20023;-79
2022/08/23 08:23:28;;;;;;;0.10;0.00;;;;;;;18.60;100.00;99588.91;7380752;19;20374;-80
2022/08/23 08:26:15;;;;;;;0.17;0.17;;;;;;;18.76;100.00;99591.44;7384101;19;20014;-80
2022/08/23 08:28:51;;;;;;;3.65;0.30;;;;;;;18.90;100.00;99592.22;7384088;19;20044;-80
2022/08/23 08:31:17;;;;;;;0.93;0.20;;;;;;;19.01;100.00;99596.91;7383397;19;20456;-80
2022/08/23 08:33:43;;;;;;;0.47;0.10;;;;;;;19.10;100.00;99596.50;7382328;19;20023;-81
2022/08/23 08:36:31;;;;;;;0.68;0.22;;;;;;;19.09;100.00;99595.72;7382158;19;20014;-80
2022/08/23 08:38:57;;;;;;;0.95;0.20;;;;;;;19.14;100.00;99608.22;7383023;19;20032;-80
2022/08/23 08:41:54;;;;;;;0.73;0.10;;;;;;;19.16;100.00;99612.03;7384708;19;20372;-80
2022/08/23 08:44:41;;;;;;;0.50;0.15;;;;;;;19.27;100.00;99600.53;7384258;19;20014;-80
2022/08/23 08:47:28;;;;;;;0.22;0.17;;;;;;;19.38;100.00;99591.88;7385236;19;20021;-81
2022/08/23 08:50:07;;;;;;;0.40;0.10;;;;;;;19.61;100.00;99589.38;7383065;19;20387;-81
2022/08/23 08:52:59;;;;;;;0.30;0.10;;;;;;;19.76;100.00;99583.16;7384507;19;20045;-82
2022/08/23 08:55:46;;;;;;;0.68;0.30;;;;;;;19.79;100.00;99580.03;7385472;19;20378;-82
2022/08/23 08:58:16;;;;;;;;;;;;;;;19.86;100.00;99581.41;7383481;19;20029;-82
2022/08/23 09:00:42;;;;;;;1.02;0.35;;;;;;;19.97;100.00;99578.31;7382411;19;19957;-82
2022/08/23 09:03:13;;;;;;;0.10;0.10;;;;;;;19.92;100.00;99579.22;7384054;19;20025;-82
2022/08/23 09:05:54;;;;;;;0.25;0.08;;;;;;;19.90;100.00;99579.00;7388531;19;20017;-82
2022/08/23 09:08:45;;;;;;;1.08;0.15;;;;;;;19.91;100.00;99594.66;7389633;19;20032;-81
2022/08/23 09:11:36;;;;;;;0.63;0.10;;;;;;;20.10;100.00;99590.38;7395087;19;20030;-85
2022/08/23 09:14:15;;;;;;;0.20;0.20;;;;;;;20.26;100.00;99582.84;7396691;19;20114;-84
2022/08/23 09:17:03;;;;;;;0.98;0.40;;;;;;;20.38;100.00;99572.78;7396061;19;20017;-86
2022/08/23 09:19:33;;;;;;;1.20;0.08;;;;;;;20.69;100.00;99566.13;7396636;19;20018;-85
2022/08/23 09:22:27;;;;;;;5.75;0.20;;;;;;;20.96;100.00;99567.47;7391587;19;20014;-86
2022/08/23 09:24:57;;;;;;;0.90;0.20;;;;;;;21.19;100.00;99569.75;7390214;19;20010;-86
2022/08/23 09:27:27;;;;;;;1.65;0.10;;;;;;;21.15;100.00;99567.28;7388391;19;20085;-88
2022/08/23 09:29:59;;;;;;;3.35;0.20;;;;;;;21.01;100.00;99563.75;7390468;19;20035;-86
2022/08/23 09:32:33;;;;;;;0.32;0.20;;;;;;;20.95;100.00;99571.63;7388643;19;20042;-86
2022/08/23 09:35:10;;;;;;;3.13;0.15;;;;;;;21.01;100.00;99562.97;7389084;19;20014;-86
2022/08/23 09:38:00;;;;;;;2.40;0.50;;;;;;;21.01;100.00;99563.75;7388716;19;20082;-86
2022/08/23 09:40:37;;;;;;;0.88;0.43;;;;;;;21.01;100.00;99566.56;7388704;19;20018;-86
2022/08/23 09:43:13;;;;;;;1.55;0.17;;;;;;;20.96;100.00;99558.97;7387757;19;20022;-84
2022/08/23 09:45:56;;;;;;;0.30;0.20;;;;;;;21.06;100.00;99562.09;7391007;19;20015;-84
2022/08/23 09:48:33;;;;;;;4.13;0.50;;;;;;;21.05;100.00;99564.16;7391125;19;20081;-84
2022/08/23 09:51:16;;;;;;;0.52;0.20;;;;;;;21.22;100.00;99563.75;7392005;19;20022;-83
2022/08/23 09:54:03;;;;;;;2.13;0.40;;;;;;;21.59;100.00;99559.63;7390651;19;20039;-84
2022/08/23 09:56:32;;;;;;;0.98;0.43;;;;;;;21.67;100.00;99560.41;7390887;19;20619;-83
2022/08/23 09:59:00;;;;;;;0.50;0.20;;;;;;;21.58;100.00;99563.75;7387970;19;20025;-84
2022/08/23 10:01:46;;;;;;;1.08;0.47;;;;;;;21.46;100.00;99571.06;7388911;19;20018;-84
2022/08/23 10:04:24;;;;;;;1.02;0.20;;;;;;;21.41;100.00;99569.13;7389047;19;20018;-83
2022/08/23 10:06:51;;;;;;;1.17;0.10;;;;;;;21.26;100.00;99572.63;7392109;19;20023;-84
2022/08/23 10:09:27;;;;;;;0.50;0.10;;;;;;;21.08;100.00;99559.47;7386461;19;20766;-85
2022/08/23 10:11:55;;;;;;;11.23;0.20;;;;;;;20.94;100.00;99561.59;7387317;19;20018;-84
2022/08/23 10:14:23;;;;;;;0.80;0.30;;;;;;;20.88;100.00;99572.31;7386688;19;20026;-84
2022/08/23 10:17:03;;;;;;;1.42;0.20;;;;;;;20.88;100.00;99577.97;7387290;19;20014;-84
2022/08/23 10:20:02;;;;;;;1.48;0.52;;;;;;;20.73;100.00;99577.09;7385073;19;20364;-86
2022/08/23 10:22:47;;;;;;;1.33;0.47;;;;;;;20.68;100.00;99575.16;7385986;19;20031;-85
2022/08/23 10:25:34;;;;;;;3.30;0.30;;;;;;;20.73;100.00;99566.53;7390882;19;20018;-86
2022/08/23 10:31:33;;;;;;;1.70;0.28;;;;;;;21.24;100.00;99566.00;7389866;19;20014;-87
2022/08/23 10:34:19;;;;;;;1.05;0.43;;;;;;;21.47;100.00;99570.50;7387981;19;20022;-85
2022/08/23 10:36:54;;;;;;;3.00;0.43;;;;;;;21.62;100.00;99552.81;7389849;19;20279;-86
2022/08/23 10:39:28;;;;;;;1.10;0.30;;;;;;;22.15;100.00;99550.22;7389736;19;20078;-86
2022/08/23 10:42:27;;;;;;;0.93;0.10;;;;;;;22.53;100.00;99548.97;7386471;19;20054;-86
2022/08/23 10:45:05;;;;;;;1.40;0.10;;;;;;;22.73;100.00;99543.69;7388807;19;20014;-87
2022/08/23 10:47:46;;;;;;;0.43;0.10;;;;;;;22.70;100.00;99548.44;7388483;19;20838;-87
2022/08/23 10:50:19;;;;;;;0.80;0.13;;;;;;;22.58;100.00;99542.34;7387984;19;20017;-87
2022/08/23 10:53:04;;;;;;;2.92;0.30;;;;;;;22.69;100.00;99543.31;7386175;19;20014;-86
2022/08/23 10:58:38;;;;;;;4.90;0.32;;;;;;;23.16;100.00;99540.66;7385093;19;20025;-87
2022/08/23 11:01:06;;;;;;;0.82;0.20;;;;;;;23.20;100.00;99546.69;7386714;19;20037;-88
2022/08/23 11:03:46;;;;;;;1.13;0.22;;;;;;;23.26;100.00;99541.56;7387372;19;20023;-88
2022/08/23 11:06:33;;;;;;;5.05;0.65;;;;;;;23.13;100.00;99538.97;7389565;19;20082;-88
2022/08/23 11:09:20;;;;;;;1.00;0.30;;;;;;;22.91;100.00;99548.25;7388098;19;20018;-88
2022/08/23 11:12:07;;;;;;;0.50;0.10;;;;;;;22.62;100.00;99550.50;7387075;19;20168;-88
2022/08/23 11:14:39;;;;;;;0.65;0.10;;;;;;;22.33;100.00;99555.53;7387309;19;20292;-89
2022/08/23 11:17:13;;;;;;;0.85;0.20;;;;;;;22.13;100.00;99564.97;7385860;19;20015;-88
2022/08/23 11:19:55;;;;;;;4.00;0.40;;;;;;;22.07;100.00;99560.78;7386628;19;20011;-88
2022/08/23 11:22:24;;;;;;;1.45;0.32;;;;;;;22.08;100.00;99554.53;7385839;19;20369;-88
2022/08/23 11:25:01;;;;;;;2.47;0.25;;;;;;;22.18;100.00;99552.66;7387694;19;20489;-87
2022/08/23 11:27:38;;;;;;;0.35;0.10;;;;;;;22.30;100.00;99553.09;7388141;19;20010;-88
2022/08/23 11:30:45;;;;;;;2.45;0.45;;;;;;;22.37;100.00;99550.25;7389531;19;20015;-89
2022/08/23 11:33:15;;;;;;;0.70;0.40;;;;;;;22.43;100.00;99552.94;7381394;19;20018;-83
2022/08/23 11:35:44;;;;;;;0.60;0.00;;;;;;;22.43;100.00;99556.53;7384505;19;20139;-83
2022/08/23 11:38:15;;;;;;;1.55;0.10;;;;;;;22.30;100.00;99559.53;7386383;19;20006;-83
2022/08/23 11:40:54;;;;;;;2.17;0.35;;;;;;;22.11;100.00;99564.75;7388428;19;20078;-83
2022/08/23 11:43:32;;;;;;;0.77;0.15;;;;;;;21.94;100.00;99561.66;7385951;19;20534;-83
2022/08/23 11:46:24;;;;;;;0.20;0.10;;;;;;;21.85;100.00;99562.97;7386620;19;20019;-83
2022/08/23 11:49:19;;;;;;;0.10;0.10;;;;;;;21.79;100.00;99573.69;7385231;19;20497;-83
2022/08/23 11:52:04;;;;;;;1.15;0.10;;;;;;;21.68;100.00;99573.25;7384023;19;20014;-83
2022/08/23 11:54:45;;;;;;;1.20;0.22;;;;;;;21.69;100.00;99577.59;7385566;19;20026;-84
2022/08/23 11:57:29;;;;;;;1.02;0.75;;;;;;;21.69;100.00;99575.53;7384139;19;20341;-82
2022/08/23 12:00:16;;;;;;;1.00;0.10;;;;;;;21.61;100.00;99588.88;7384760;19;20488;-82
2022/08/23 12:02:52;;;;;;;3.60;0.40;;;;;;;21.62;100.00;99592.50;7383265;19;20041;-81
2022/08/23 12:05:31;;;;;;;2.47;0.60;;;;;;;21.92;100.00;99583.41;7385286;19;20010;-84
2022/08/23 12:08:00;;;;;;;3.92;0.40;;;;;;;22.24;100.00;99578.78;7385107;19;20402;-83
2022/08/23 12:10:39;;;;;;;0.73;0.50;;;;;;;22.40;100.00;99580.34;7387055;19;20014;-84